createdAt,value
2019-04-26T00:01:20.470Z,5.50
2019-04-26T00:03:50.507Z,5.27
2019-04-26T00:06:20.978Z,6.77
2019-04-26T00:08:56.252Z,5.83
2019-04-26T00:11:52.558Z,7.90
2019-04-26T00:14:41.564Z,10.73
2019-04-26T00:17:15.728Z,6.73
2019-04-26T00:19:45.889Z,7.23
2019-04-26T00:22:17.168Z,5.70
2019-04-26T00:24:47.333Z,7.60
2019-04-26T00:27:17.232Z,5.60
2019-04-26T00:29:47.125Z,5.50
2019-04-26T00:32:17.369Z,5.43
2019-04-26T00:34:47.564Z,8.53
2019-04-26T00:37:17.976Z,5.40
2019-04-26T00:39:47.911Z,7.33
2019-04-26T00:42:18.589Z,9.10
2019-04-26T00:44:48.662Z,7.00
2019-04-26T00:47:21.093Z,6.97
2019-04-26T00:49:52.259Z,10.50
2019-04-26T00:52:23.830Z,9.03
2019-04-26T00:54:54.253Z,8.47
2019-04-26T00:57:25.250Z,8.00
2019-04-26T00:59:55.433Z,6.57
2019-04-26T01:02:31.316Z,12.00
2019-04-26T01:05:01.248Z,8.47
2019-04-26T01:07:31.121Z,10.00
2019-04-26T01:10:00.992Z,7.57
2019-04-26T01:12:30.875Z,7.63
2019-04-26T01:15:00.772Z,12.73
2019-04-26T01:17:30.645Z,5.27
2019-04-26T01:20:03.171Z,6.60
2019-04-26T01:22:38.349Z,11.57
2019-04-26T01:25:09.997Z,8.37
2019-04-26T01:27:40.155Z,10.07
2019-04-26T01:30:14.132Z,7.00
2019-04-26T01:32:46.246Z,8.07
2019-04-26T01:35:16.704Z,6.03
2019-04-26T01:37:47.703Z,7.80
2019-04-26T01:40:21.078Z,6.27
2019-04-26T01:42:59.083Z,8.50
2019-04-26T01:45:47.010Z,10.23
2019-04-26T01:48:45.542Z,10.53
2019-04-26T01:51:27.029Z,8.27
2019-04-26T01:53:57.216Z,7.63
2019-04-26T01:56:33.799Z,12.23
2019-04-26T01:59:05.184Z,9.00
2019-04-26T02:01:50.811Z,8.83
2019-04-26T02:04:22.600Z,12.00
2019-04-26T02:06:53.183Z,10.37
2019-04-26T02:09:24.340Z,11.63
2019-04-26T02:11:54.229Z,8.50
2019-04-26T02:14:25.285Z,8.63
2019-04-26T02:16:55.619Z,11.23
2019-04-26T02:19:25.791Z,8.80
2019-04-26T02:22:02.188Z,11.10
2019-04-26T02:24:35.848Z,12.73
2019-04-26T02:27:11.090Z,10.73
2019-04-26T02:29:40.985Z,10.83
2019-04-26T02:32:10.892Z,13.37
2019-04-26T02:34:40.960Z,9.70
2019-04-26T02:37:13.545Z,10.93
2019-04-26T02:39:43.911Z,11.70
2019-04-26T02:42:32.903Z,11.97
2019-04-26T02:45:36.781Z,15.73
2019-04-26T02:48:20.536Z,12.47
2019-04-26T02:50:57.867Z,13.87
2019-04-26T02:53:44.209Z,13.03
2019-04-26T02:56:37.701Z,9.20
2019-04-26T02:59:37.715Z,11.70
2019-04-26T03:02:21.130Z,10.93
2019-04-26T03:04:56.760Z,13.53
2019-04-26T03:08:02.950Z,11.93
2019-04-26T03:10:43.634Z,10.07
2019-04-26T03:13:40.256Z,10.50
2019-04-26T03:16:31.429Z,13.23
2019-04-26T03:19:17.286Z,12.07
2019-04-26T03:22:05.105Z,11.83
2019-04-26T03:24:45.518Z,13.30
2019-04-26T03:27:39.736Z,13.93
2019-04-26T03:30:24.116Z,10.73
2019-04-26T03:33:39.834Z,11.93
2019-04-26T03:37:19.571Z,10.77
2019-04-26T03:40:00.637Z,13.00
2019-04-26T03:42:56.395Z,9.37
2019-04-26T03:46:02.038Z,16.43
2019-04-26T03:48:48.037Z,11.40
2019-04-26T03:51:37.517Z,12.53
2019-04-26T03:54:16.982Z,13.73
2019-04-26T03:57:13.187Z,13.70
2019-04-26T04:00:21.664Z,14.63
2019-04-26T04:03:30.577Z,13.80
2019-04-26T04:06:05.230Z,16.07
2019-04-26T04:08:48.245Z,11.33
2019-04-26T04:11:24.671Z,19.57
2019-04-26T04:14:05.753Z,12.47
2019-04-26T04:17:15.505Z,11.87
2019-04-26T04:20:22.564Z,13.87
2019-04-26T04:23:09.019Z,18.77
2019-04-26T04:25:46.993Z,19.03
2019-04-26T04:28:38.610Z,17.23
2019-04-26T04:31:31.798Z,13.00
2019-04-26T04:34:13.598Z,12.93
2019-04-26T04:36:53.349Z,12.60
2019-04-26T04:39:54.273Z,17.60
2019-04-26T04:43:06.206Z,14.43
2019-04-26T04:46:15.908Z,15.67
2019-04-26T04:49:16.481Z,13.60
2019-04-26T04:52:14.164Z,11.67
2019-04-26T04:55:06.364Z,19.80
2019-04-26T04:58:05.223Z,16.23
2019-04-26T05:01:33.095Z,12.83
2019-04-26T05:04:19.398Z,17.73
2019-04-26T05:07:23.692Z,19.23
2019-04-26T05:10:18.736Z,11.73
2019-04-26T05:13:21.298Z,13.93
2019-04-26T05:16:42.515Z,14.27
2019-04-26T05:19:58.732Z,12.97
2019-04-26T05:23:16.502Z,18.30
2019-04-26T05:26:55.713Z,15.33
2019-04-26T05:30:22.835Z,18.67
2019-04-26T05:33:56.762Z,13.03
2019-04-26T05:37:05.024Z,19.17
2019-04-26T05:40:02.633Z,12.43
2019-04-26T05:43:22.629Z,19.43
2019-04-26T05:47:18.179Z,21.03
2019-04-26T05:51:32.517Z,14.57
2019-04-26T05:55:00.581Z,16.47
2019-04-26T05:58:13.731Z,20.03
2019-04-26T06:01:41.682Z,15.70
2019-04-26T06:04:46.505Z,18.07
2019-04-26T06:07:37.003Z,18.90
2019-04-26T06:10:39.160Z,20.77
2019-04-26T06:13:36.049Z,18.23
2019-04-26T06:17:21.267Z,19.53
2019-04-26T06:20:22.606Z,19.13
2019-04-26T06:23:37.326Z,14.80
2019-04-26T06:27:13.710Z,15.90
2019-04-26T06:29:48.021Z,15.30
2019-04-26T06:32:34.037Z,14.83
2019-04-26T06:35:16.391Z,17.83
2019-04-26T06:38:08.267Z,16.67
2019-04-26T06:41:06.369Z,16.07
2019-04-26T06:43:45.773Z,16.00
2019-04-26T06:47:16.392Z,19.20
2019-04-26T06:50:28.955Z,18.53
2019-04-26T06:53:30.161Z,18.03
2019-04-26T06:56:32.528Z,18.43
2019-04-26T06:59:47.176Z,13.87
2019-04-26T07:02:31.832Z,19.80
2019-04-26T07:05:16.237Z,16.40
2019-04-26T07:08:28.206Z,15.70
2019-04-26T07:11:42.586Z,19.63
2019-04-26T07:14:57.748Z,15.93
2019-04-26T07:17:51.481Z,14.13
2019-04-26T07:20:46.321Z,18.83
2019-04-26T07:24:13.328Z,21.37
2019-04-26T07:27:18.258Z,21.40
2019-04-26T07:30:25.090Z,16.57
2019-04-26T07:33:26.504Z,15.80
2019-04-26T07:36:53.439Z,22.37
2019-04-26T07:40:34.803Z,18.47
2019-04-26T07:44:14.500Z,17.17
2019-04-26T07:47:26.331Z,21.50
2019-04-26T07:50:54.917Z,17.27
2019-04-26T07:54:13.171Z,16.63
2019-04-26T07:57:54.792Z,18.33
2019-04-26T08:00:44.987Z,15.83
2019-04-26T08:03:43.631Z,32.93
2019-04-26T08:06:25.134Z,22.30
2019-04-26T08:09:25.098Z,18.77
2019-04-26T08:11:53.368Z,17.17
2019-04-26T08:14:41.462Z,13.27
2019-04-26T08:17:43.158Z,14.40
2019-04-26T08:20:50.226Z,28.10
2019-04-26T08:23:39.502Z,16.30
2019-04-26T08:26:09.134Z,16.50
2019-04-26T08:28:44.499Z,19.83
2019-04-26T08:31:23.195Z,20.83
2019-04-26T08:33:59.673Z,21.83
2019-04-26T08:36:36.102Z,14.80
2019-04-26T08:39:24.581Z,15.77
2019-04-26T08:41:55.171Z,17.87
2019-04-26T08:44:46.104Z,20.40
2019-04-26T08:47:28.312Z,18.03
2019-04-26T08:50:09.645Z,19.17
2019-04-26T08:52:41.450Z,16.20
2019-04-26T08:55:12.973Z,17.47
2019-04-26T08:57:46.652Z,20.23
2019-04-26T09:00:32.275Z,27.17
2019-04-26T09:03:32.406Z,15.80
2019-04-26T09:06:15.421Z,15.67
2019-04-26T09:08:49.158Z,14.80
2019-04-26T09:11:26.431Z,26.80
2019-04-26T09:13:56.495Z,21.83
2019-04-26T09:16:26.589Z,18.27
2019-04-26T09:18:59.612Z,18.80
2019-04-26T09:21:35.461Z,20.27
2019-04-26T09:24:13.492Z,21.90
2019-04-26T09:26:48.825Z,20.27
2019-04-26T09:29:30.554Z,18.50
2019-04-26T09:32:03.569Z,17.47
2019-04-26T09:34:33.511Z,13.90
2019-04-26T09:37:03.565Z,19.30
2019-04-26T09:39:33.454Z,14.67
2019-04-26T09:42:11.156Z,16.43
2019-04-26T09:44:52.706Z,17.17
2019-04-26T09:47:36.481Z,13.27
2019-04-26T09:50:23.811Z,16.33
2019-04-26T09:52:54.023Z,18.77
2019-04-26T09:55:34.756Z,16.80
2019-04-26T09:57:57.085Z,15.47
2019-04-26T10:00:29.624Z,13.83
2019-04-26T10:02:59.667Z,21.33
2019-04-26T10:05:29.557Z,20.50
2019-04-26T10:07:59.488Z,14.70
2019-04-26T10:10:35.320Z,14.77
2019-04-26T10:13:29.067Z,15.73
2019-04-26T10:16:13.278Z,13.70
2019-04-26T10:18:46.090Z,19.67
2019-04-26T10:21:16.013Z,13.93
2019-04-26T10:23:46.152Z,13.90
2019-04-26T10:26:16.436Z,18.17
2019-04-26T10:28:50.411Z,17.40
2019-04-26T10:31:18.675Z,15.37
2019-04-26T10:33:48.727Z,10.73
2019-04-26T10:36:18.771Z,10.63
2019-04-26T10:38:48.749Z,11.30
2019-04-26T10:41:18.854Z,18.37
2019-04-26T10:43:48.743Z,16.97
2019-04-26T10:46:18.671Z,12.97
2019-04-26T10:48:49.794Z,10.60
2019-04-26T10:51:26.982Z,8.83
2019-04-26T10:54:06.005Z,12.13
2019-04-26T10:56:54.905Z,12.50
2019-04-26T10:59:31.938Z,18.67
2019-04-26T11:02:01.972Z,23.70
2019-04-26T11:04:31.973Z,13.37
2019-04-26T11:07:03.394Z,28.60
2019-04-26T11:09:33.469Z,22.90
2019-04-26T11:12:04.972Z,21.50
2019-04-26T11:14:34.892Z,17.00
2019-04-26T11:17:05.647Z,18.83
2019-04-26T11:19:36.609Z,16.53
2019-04-26T11:22:06.766Z,16.17
2019-04-26T11:24:36.667Z,17.53
2019-04-26T11:27:09.559Z,20.10
2019-04-26T11:29:38.479Z,16.17
2019-04-26T11:32:09.140Z,19.17
2019-04-26T11:34:39.148Z,11.77
2019-04-26T11:37:09.245Z,15.87
2019-04-26T11:39:40.446Z,12.83
2019-04-26T11:42:11.852Z,18.07
2019-04-26T11:44:44.518Z,16.50
2019-04-26T11:47:14.328Z,14.00
2019-04-26T11:49:44.301Z,19.57
2019-04-26T11:52:14.342Z,13.17
2019-04-26T11:54:44.369Z,12.73
2019-04-26T11:57:14.276Z,14.27
2019-04-26T11:59:44.367Z,12.23
2019-04-26T12:02:16.240Z,14.67
2019-04-26T12:05:08.124Z,11.87
2019-04-26T12:07:57.679Z,18.90
2019-04-26T12:10:27.685Z,10.20
2019-04-26T12:13:05.577Z,11.50
2019-04-26T12:15:30.351Z,12.40
2019-04-26T12:18:00.670Z,10.83
2019-04-26T12:20:30.903Z,15.67
2019-04-26T12:23:00.846Z,14.10
2019-04-26T12:25:31.186Z,11.90
2019-04-26T12:28:02.072Z,16.17
2019-04-26T12:30:33.093Z,15.40
2019-04-26T12:33:04.552Z,8.23
2019-04-26T12:35:34.570Z,8.00
2019-04-26T12:38:04.590Z,9.83
2019-04-26T12:40:34.535Z,6.10
2019-04-26T12:43:04.539Z,6.90
2019-04-26T12:45:52.584Z,11.33
2019-04-26T12:48:23.128Z,7.17
2019-04-26T12:50:53.029Z,10.40
2019-04-26T12:53:26.871Z,9.27
2019-04-26T12:55:58.156Z,7.70
2019-04-26T12:58:26.505Z,8.63
2019-04-26T13:00:58.398Z,8.50
2019-04-26T13:03:29.314Z,11.10
2019-04-26T13:05:59.929Z,11.17
2019-04-26T13:08:29.869Z,10.03
2019-04-26T13:11:15.443Z,4.67
2019-04-26T13:13:59.426Z,6.17
2019-04-26T13:16:47.239Z,10.20
2019-04-26T13:19:19.866Z,7.90
2019-04-26T13:21:48.784Z,8.00
2019-04-26T13:24:18.716Z,7.73
2019-04-26T13:26:50.183Z,5.60
2019-04-26T13:29:20.456Z,11.70
2019-04-26T13:31:50.308Z,8.53
2019-04-26T13:34:20.266Z,8.23
2019-04-26T13:36:50.262Z,9.57
2019-04-26T13:39:22.338Z,7.90
2019-04-26T13:42:02.157Z,7.40
2019-04-26T13:44:41.280Z,8.63
2019-04-26T13:47:33.146Z,5.40
2019-04-26T13:50:10.514Z,7.80
2019-04-26T13:52:40.423Z,6.73
2019-04-26T13:55:10.805Z,8.13
2019-04-26T13:57:44.521Z,6.97
2019-04-26T14:00:16.238Z,6.43
2019-04-26T14:02:46.333Z,7.07
2019-04-26T14:05:16.961Z,8.30
2019-04-26T14:07:47.133Z,6.73
2019-04-26T14:10:17.525Z,5.13
2019-04-26T14:12:50.042Z,7.37
2019-04-26T14:15:19.491Z,7.90
2019-04-26T14:17:49.374Z,6.27
2019-04-26T14:20:23.203Z,6.17
2019-04-26T14:23:00.432Z,14.57
2019-04-26T14:25:37.246Z,8.23
2019-04-26T14:28:07.227Z,6.67
2019-04-26T14:30:37.475Z,7.77
2019-04-26T14:33:08.873Z,6.93
2019-04-26T14:35:46.241Z,7.30
2019-04-26T14:38:27.104Z,8.87
2019-04-26T14:40:46.505Z,4.27
2019-04-26T14:43:18.264Z,5.20
2019-04-26T14:45:55.792Z,3.10
2019-04-26T14:48:29.333Z,6.23
2019-04-26T14:50:53.250Z,8.43
2019-04-26T14:53:23.468Z,5.90
2019-04-26T14:55:54.706Z,5.10
2019-04-26T14:58:29.860Z,7.93
2019-04-26T15:01:03.186Z,5.83
2019-04-26T15:03:40.142Z,6.20
2019-04-26T15:06:16.901Z,7.07
2019-04-26T15:08:48.905Z,4.13
2019-04-26T15:11:18.920Z,5.07
2019-04-26T15:13:49.018Z,5.13
2019-04-26T15:16:22.024Z,6.77
2019-04-26T15:18:50.578Z,8.57
2019-04-26T15:21:20.500Z,6.87
2019-04-26T15:23:50.425Z,6.63
2019-04-26T15:26:24.236Z,5.67
2019-04-26T15:28:52.015Z,5.30
2019-04-26T15:31:24.867Z,7.67
2019-04-26T15:33:54.551Z,9.60
2019-04-26T15:36:24.490Z,11.13
2019-04-26T15:38:55.300Z,9.53
2019-04-26T15:41:43.116Z,7.23
2019-04-26T15:44:45.962Z,9.73
2019-04-26T15:47:34.805Z,7.83
2019-04-26T15:50:10.880Z,7.33
2019-04-26T15:52:42.335Z,6.70
2019-04-26T15:55:13.407Z,7.57
2019-04-26T15:57:43.392Z,4.43
2019-04-26T16:00:13.379Z,4.57
2019-04-26T16:02:43.559Z,7.63
2019-04-26T16:05:16.542Z,3.57
2019-04-26T16:07:45.374Z,8.03
2019-04-26T16:10:15.522Z,7.97
2019-04-26T16:12:45.515Z,8.97
2019-04-26T16:15:15.409Z,4.43
2019-04-26T16:17:45.308Z,7.40
2019-04-26T16:20:15.413Z,5.47
2019-04-26T16:22:45.505Z,6.23
2019-04-26T16:25:15.573Z,8.17
2019-04-26T16:27:45.481Z,6.70
2019-04-26T16:30:28.198Z,12.30
2019-04-26T16:33:04.833Z,10.20
2019-04-26T16:35:35.278Z,5.47
2019-04-26T16:38:22.962Z,12.90
2019-04-26T16:40:55.008Z,4.87
2019-04-26T16:43:36.440Z,9.80
2019-04-26T16:45:56.450Z,8.77
2019-04-26T16:48:27.267Z,7.47
2019-04-26T16:51:00.892Z,8.60
2019-04-26T16:53:45.532Z,5.60
2019-04-26T16:56:03.257Z,7.73
2019-04-26T16:58:38.114Z,6.97
2019-04-26T17:01:09.964Z,8.83
2019-04-26T17:03:38.216Z,5.43
2019-04-26T17:06:13.286Z,5.27
2019-04-26T17:08:43.315Z,7.10
2019-04-26T17:11:12.415Z,3.70
2019-04-26T17:13:51.515Z,10.13
2019-04-26T17:16:14.828Z,7.07
2019-04-26T17:18:44.812Z,7.00
2019-04-26T17:21:17.729Z,13.10
2019-04-26T17:24:10.255Z,4.97
2019-04-26T17:26:47.744Z,7.47
2019-04-26T17:29:17.717Z,6.57
2019-04-26T17:31:47.608Z,9.77
2019-04-26T17:34:17.589Z,8.43
2019-04-26T17:36:50.537Z,4.97
2019-04-26T17:39:19.342Z,8.50
2019-04-26T17:41:50.618Z,7.40
2019-04-26T17:44:26.585Z,7.70
2019-04-26T17:46:56.316Z,7.10
2019-04-26T17:49:27.427Z,6.93
2019-04-26T17:51:58.181Z,9.63
2019-04-26T17:54:44.116Z,6.77
2019-04-26T17:56:59.128Z,7.53
2019-04-26T17:59:34.577Z,2.80
2019-04-26T18:02:01.411Z,7.23
2019-04-26T18:04:36.494Z,4.43
2019-04-26T18:07:22.159Z,4.63
2019-04-26T18:09:43.905Z,5.87
2019-04-26T18:12:06.914Z,7.10
2019-04-26T18:14:36.810Z,6.10
2019-04-26T18:17:15.084Z,5.53
2019-04-26T18:20:18.996Z,19.90
2019-04-26T18:22:55.898Z,6.17
2019-04-26T18:25:25.898Z,5.30
2019-04-26T18:27:55.793Z,6.10
2019-04-26T18:30:26.994Z,6.13
2019-04-26T18:32:57.087Z,3.87
2019-04-26T18:35:27.028Z,3.80
2019-04-26T18:37:56.927Z,6.80
2019-04-26T18:40:27.127Z,5.80
2019-04-26T18:42:57.007Z,3.20
2019-04-26T18:45:29.793Z,6.70
2019-04-26T18:48:01.488Z,6.03
2019-04-26T18:50:32.754Z,4.70
2019-04-26T18:53:30.639Z,6.17
2019-04-26T18:56:03.407Z,2.07
2019-04-26T18:58:34.813Z,6.70
2019-04-26T19:01:05.344Z,9.57
2019-04-26T19:03:35.289Z,3.73
2019-04-26T19:06:05.778Z,4.10
2019-04-26T19:08:45.395Z,5.20
2019-04-26T19:11:11.547Z,9.83
2019-04-26T19:14:02.160Z,4.13
2019-04-26T19:16:39.883Z,6.43
2019-04-26T19:19:25.921Z,5.47
2019-04-26T19:22:01.515Z,4.87
2019-04-26T19:24:32.159Z,4.80
2019-04-26T19:27:04.171Z,3.40
2019-04-26T19:29:36.072Z,3.10
2019-04-26T19:32:06.180Z,4.10
2019-04-26T19:34:36.124Z,3.83
2019-04-26T19:37:06.106Z,2.97
2019-04-26T19:39:36.156Z,7.07
2019-04-26T19:42:06.461Z,6.67
2019-04-26T19:44:36.435Z,7.37
2019-04-26T19:47:14.581Z,2.90
2019-04-26T19:50:03.067Z,4.13
2019-04-26T19:52:51.777Z,5.70
2019-04-26T19:55:41.799Z,3.67
2019-04-26T19:58:20.074Z,4.43
2019-04-26T20:00:46.877Z,7.10
2019-04-26T20:03:17.135Z,4.53
2019-04-26T20:05:54.969Z,4.78
2019-04-26T20:08:25.041Z,3.73
2019-04-26T20:10:55.014Z,4.63
2019-04-26T20:13:25.331Z,3.57
2019-04-26T20:15:57.329Z,4.30
2019-04-26T20:18:26.867Z,6.43
2019-04-26T20:20:56.854Z,4.80
2019-04-26T20:23:26.893Z,5.70
2019-04-26T20:26:00.935Z,6.63
2019-04-26T20:28:29.676Z,4.90
2019-04-26T20:31:23.805Z,5.10
2019-04-26T20:33:53.723Z,6.33
2019-04-26T20:36:23.675Z,7.53
2019-04-26T20:38:53.632Z,4.27
2019-04-26T20:41:23.585Z,4.33
2019-04-26T20:44:04.937Z,5.23
2019-04-26T20:46:29.621Z,4.47
2019-04-26T20:49:01.475Z,5.03
2019-04-26T20:51:32.372Z,5.33
2019-04-26T20:54:03.988Z,4.37
2019-04-26T20:56:35.366Z,4.73
2019-04-26T20:59:06.203Z,7.30
2019-04-26T21:01:36.724Z,4.63
2019-04-26T21:04:07.733Z,5.33
2019-04-26T21:06:38.780Z,4.53
2019-04-26T21:09:12.570Z,5.30
2019-04-26T21:11:43.579Z,5.63
2019-04-26T21:14:14.431Z,4.73
2019-04-26T21:16:49.357Z,7.50
2019-04-26T21:19:18.956Z,5.27
2019-04-26T21:21:52.215Z,6.40
2019-04-26T21:24:25.089Z,5.80
2019-04-26T21:27:08.967Z,6.53
2019-04-26T21:29:52.388Z,7.37
2019-04-26T21:32:30.334Z,8.27
2019-04-26T21:35:03.522Z,7.87
2019-04-26T21:37:38.671Z,6.83
2019-04-26T21:40:22.455Z,6.40
2019-04-26T21:42:49.360Z,8.07
2019-04-26T21:45:21.665Z,5.77
2019-04-26T21:47:51.808Z,7.47
2019-04-26T21:50:22.399Z,6.37
2019-04-26T21:52:54.639Z,6.87
2019-04-26T21:55:31.876Z,12.27
2019-04-26T21:57:58.634Z,7.17
2019-04-26T22:00:51.611Z,6.60
2019-04-26T22:03:21.546Z,8.17
2019-04-26T22:05:51.582Z,10.27
2019-04-26T22:08:25.814Z,7.57
2019-04-26T22:10:55.908Z,8.33
2019-04-26T22:13:33.275Z,7.60
2019-04-26T22:16:33.368Z,12.63
2019-04-26T22:19:04.605Z,9.23
2019-04-26T22:21:44.281Z,11.87
2019-04-26T22:24:19.518Z,10.23
2019-04-26T22:26:49.648Z,12.23
2019-04-26T22:29:19.833Z,8.80
2019-04-26T22:31:49.759Z,10.20
2019-04-26T22:34:19.705Z,14.23
2019-04-26T22:36:49.747Z,12.97
2019-04-26T22:39:19.784Z,17.10
2019-04-26T22:41:49.825Z,13.50
2019-04-26T22:44:34.639Z,16.97
2019-04-26T22:47:25.523Z,12.83
2019-04-26T22:49:55.738Z,14.30
2019-04-26T22:52:25.656Z,20.60
2019-04-26T22:54:55.518Z,16.70
2019-04-26T22:57:25.573Z,12.67
2019-04-26T22:59:55.456Z,11.40
2019-04-26T23:02:27.616Z,9.07
2019-04-26T23:05:00.659Z,11.23
2019-04-26T23:07:29.461Z,11.23
2019-04-26T23:09:59.396Z,5.90
2019-04-26T23:12:51.598Z,8.13
2019-04-26T23:15:55.586Z,5.07
2019-04-26T23:18:46.267Z,5.00
2019-04-26T23:21:25.037Z,6.40
2019-04-26T23:23:55.035Z,5.70
2019-04-26T23:26:25.113Z,5.93
2019-04-26T23:28:55.191Z,6.17
2019-04-26T23:31:25.160Z,5.37
2019-04-26T23:33:55.092Z,6.60
2019-04-26T23:36:25.066Z,6.10
2019-04-26T23:38:55.073Z,6.73
2019-04-26T23:41:25.075Z,7.57
2019-04-26T23:44:02.596Z,7.70
2019-04-26T23:46:26.635Z,8.57
2019-04-26T23:48:56.549Z,9.90
2019-04-26T23:51:26.435Z,12.63
2019-04-26T23:53:57.770Z,10.73
2019-04-26T23:56:27.897Z,9.37
2019-04-26T23:58:57.845Z,11.60
